createdAt,value
2022-11-14T00:02:33.473Z,96283.63
2022-11-14T00:05:19.422Z,96279.00
2022-11-14T00:08:04.989Z,96282.41
2022-11-14T00:10:51.969Z,96281.03
2022-11-14T00:13:37.423Z,96277.91
2022-11-14T00:16:22.574Z,96280.22
2022-11-14T00:19:07.868Z,96287.88
2022-11-14T00:21:53.532Z,96281.59
2022-11-14T00:24:38.930Z,96270.66
2022-11-14T00:27:24.395Z,96280.91
2022-11-14T00:30:10.253Z,96283.78
2022-11-14T00:32:55.428Z,96285.69
2022-11-14T00:35:40.694Z,96270.66
2022-11-14T00:38:26.162Z,96274.75
2022-11-14T00:41:11.461Z,96270.09
2022-11-14T00:43:56.759Z,96266.16
2022-11-14T00:46:42.175Z,96269.28
2022-11-14T00:49:27.626Z,96261.63
2022-11-14T00:52:12.896Z,96263.53
2022-11-14T00:54:58.154Z,96265.59
2022-11-14T00:57:43.408Z,96267.09
2022-11-14T01:00:28.951Z,96263.81
2022-11-14T01:03:14.525Z,96262.44
2022-11-14T01:06:05.791Z,96256.28
2022-11-14T01:08:52.082Z,96252.59
2022-11-14T01:11:38.393Z,96250.94
2022-11-14T01:14:23.830Z,96260.94
2022-11-14T01:17:09.260Z,96245.63
2022-11-14T01:19:55.026Z,96245.94
2022-11-14T01:22:40.545Z,96234.84
2022-11-14T01:25:25.721Z,96224.47
2022-11-14T01:28:13.920Z,96231.28
2022-11-14T01:31:15.185Z,96232.13
2022-11-14T01:34:00.465Z,96212.69
2022-11-14T01:36:45.836Z,96213.22
2022-11-14T01:39:31.271Z,96211.88
2022-11-14T01:42:17.704Z,96202.31
2022-11-14T01:45:41.487Z,96206.16
2022-11-14T01:48:38.022Z,96198.06
2022-11-14T01:51:26.598Z,96195.88
2022-11-14T01:54:24.176Z,96206.38
2022-11-14T01:57:11.511Z,96198.47
2022-11-14T02:00:01.088Z,96192.31
2022-11-14T02:02:46.822Z,96185.63
2022-11-14T02:05:32.951Z,96181.94
2022-11-14T02:08:18.868Z,96189.03
2022-11-14T02:11:04.320Z,96183.72
2022-11-14T02:13:50.674Z,96188.91
2022-11-14T02:16:36.057Z,96192.16
2022-11-14T02:19:21.481Z,96179.06
2022-11-14T02:22:06.824Z,96172.47
2022-11-14T02:24:52.155Z,96170.25
2022-11-14T02:27:39.748Z,96170.00
2022-11-14T02:30:25.005Z,96170.78
2022-11-14T02:33:11.496Z,96160.66
2022-11-14T02:35:57.114Z,96166.81
2022-11-14T02:38:42.517Z,96171.91
2022-11-14T02:41:27.736Z,96177.53
2022-11-14T02:44:13.414Z,96186.16
2022-11-14T02:46:58.796Z,96178.78
2022-11-14T02:49:44.136Z,96176.88
2022-11-14T02:52:29.585Z,96177.28
2022-11-14T02:55:15.331Z,96161.69
2022-11-14T02:58:00.865Z,96162.13
2022-11-14T03:01:13.564Z,96161.03
2022-11-14T03:03:52.366Z,96152.44
2022-11-14T03:06:37.582Z,96156.41
2022-11-14T03:09:22.984Z,96159.41
2022-11-14T03:12:08.257Z,96170.59
2022-11-14T03:14:53.712Z,96160.75
2022-11-14T03:17:39.079Z,96161.59
2022-11-14T03:20:24.118Z,96169.38
2022-11-14T03:23:09.439Z,96175.28
2022-11-14T03:25:54.757Z,96165.44
2022-11-14T03:28:41.086Z,96152.56
2022-11-14T03:31:26.021Z,96159.69
2022-11-14T03:34:12.828Z,96162.69
2022-11-14T03:36:57.931Z,96158.19
2022-11-14T03:39:43.257Z,96149.56
2022-11-14T03:42:28.679Z,96141.75
2022-11-14T03:45:13.942Z,96139.47
2022-11-14T03:47:59.289Z,96136.19
2022-11-14T03:50:44.419Z,96140.41
2022-11-14T03:53:29.762Z,96134.53
2022-11-14T03:56:15.131Z,96148.31
2022-11-14T03:59:00.451Z,96138.09
2022-11-14T04:01:45.802Z,96127.16
2022-11-14T04:04:31.005Z,96130.97
2022-11-14T04:07:16.348Z,96132.78
2022-11-14T04:10:01.755Z,96119.41
2022-11-14T04:12:51.559Z,96108.44
2022-11-14T04:15:36.798Z,96116.53
2022-11-14T04:18:22.350Z,96112.84
2022-11-14T04:21:07.256Z,96114.50
2022-11-14T04:23:52.691Z,96107.78
2022-11-14T04:26:37.931Z,96110.13
2022-11-14T04:29:23.476Z,96116.81
2022-11-14T04:32:08.593Z,96110.94
2022-11-14T04:34:54.003Z,96113.25
2022-11-14T04:37:39.627Z,96108.06
2022-11-14T04:40:24.928Z,96101.78
2022-11-14T04:43:10.234Z,96101.94
2022-11-14T04:45:55.454Z,96091.56
2022-11-14T04:48:40.747Z,96102.59
2022-11-14T04:51:26.114Z,96113.66
2022-11-14T04:54:11.584Z,96119.00
2022-11-14T04:56:56.847Z,96121.19
2022-11-14T05:04:01.430Z,96108.19
2022-11-14T05:07:34.532Z,96106.00
2022-11-14T05:10:34.472Z,96110.13
2022-11-14T05:16:47.233Z,96099.88
2022-11-14T05:19:32.724Z,96094.00
2022-11-14T05:22:30.416Z,96096.59
2022-11-14T05:25:15.783Z,96094.00
2022-11-14T05:28:01.951Z,96104.22
2022-11-14T05:35:17.438Z,96111.06
2022-11-14T05:38:05.691Z,96100.97
2022-11-14T05:40:51.031Z,96105.06
2022-11-14T05:50:47.470Z,96112.44
2022-11-14T05:53:34.075Z,96125.53
2022-11-14T05:56:19.191Z,96130.19
2022-11-14T05:59:04.630Z,96130.34
2022-11-14T06:01:49.974Z,96134.84
2022-11-14T06:04:35.166Z,96135.94
2022-11-14T06:07:20.755Z,96138.63
2022-11-14T06:10:06.937Z,96141.22
2022-11-14T06:12:52.603Z,96136.19
2022-11-14T06:15:37.956Z,96148.31
2022-11-14T06:18:23.335Z,96152.56
2022-11-14T06:21:17.527Z,96159.69
2022-11-14T06:24:03.038Z,96145.88
2022-11-14T06:26:48.362Z,96153.25
2022-11-14T06:29:35.661Z,96150.50
2022-11-14T06:32:21.120Z,96143.69
2022-11-14T06:35:08.503Z,96146.28
2022-11-14T06:37:54.364Z,96149.56
2022-11-14T06:40:40.067Z,96145.19
2022-11-14T06:43:25.545Z,96144.38
2022-11-14T06:46:12.895Z,96155.69
2022-11-14T06:48:58.524Z,96153.34
2022-11-14T06:51:43.962Z,96165.66
2022-11-14T06:54:29.291Z,96152.25
2022-11-14T06:57:14.765Z,96161.69
2022-11-14T07:00:00.325Z,96164.28
2022-11-14T07:02:46.861Z,96161.00
2022-11-14T07:05:32.328Z,96165.91
2022-11-14T07:08:21.002Z,96162.78
2022-11-14T07:11:12.746Z,96161.84
2022-11-14T07:14:04.029Z,96157.59
2022-11-14T07:16:49.370Z,96159.25
2022-11-14T07:19:35.215Z,96160.75
2022-11-14T07:22:20.826Z,96160.63
2022-11-14T07:25:06.968Z,96170.59
2022-11-14T07:27:52.628Z,96167.84
2022-11-14T07:30:37.994Z,96174.69
2022-11-14T07:33:23.207Z,96170.75
2022-11-14T07:36:09.602Z,96172.25
2022-11-14T07:38:55.099Z,96177.97
2022-11-14T07:41:41.208Z,96184.56
2022-11-14T07:44:26.836Z,96184.66
2022-11-14T07:47:12.197Z,96176.38
2022-11-14T07:49:57.491Z,96179.63
2022-11-14T07:52:42.986Z,96179.91
2022-11-14T07:55:28.323Z,96184.69
2022-11-14T07:58:13.857Z,96182.53
2022-11-14T08:01:03.150Z,96192.50
2022-11-14T08:03:48.597Z,96190.28
2022-11-14T08:06:34.173Z,96171.16
2022-11-14T08:09:19.571Z,96167.47
2022-11-14T08:12:05.435Z,96167.22
2022-11-14T08:14:50.901Z,96170.50
2022-11-14T08:17:36.344Z,96172.69
2022-11-14T08:20:21.772Z,96169.53
2022-11-14T08:23:07.743Z,96164.88
2022-11-14T08:25:53.307Z,96165.94
2022-11-14T08:28:38.879Z,96159.91
2022-11-14T08:31:25.087Z,96156.78
2022-11-14T08:34:10.587Z,96160.44
2022-11-14T08:36:57.452Z,96158.50
2022-11-14T08:39:42.874Z,96151.50
2022-11-14T08:42:28.962Z,96151.38
2022-11-14T08:45:14.582Z,96160.41
2022-11-14T08:48:00.248Z,96128.63
2022-11-14T08:50:45.450Z,96136.69
2022-11-14T08:53:31.533Z,96131.31
2022-11-14T08:56:16.668Z,96127.63
2022-11-14T08:59:05.703Z,96118.44
2022-11-14T09:01:51.458Z,96114.63
2022-11-14T09:04:37.213Z,96117.06
2022-11-14T09:07:22.877Z,96110.75
2022-11-14T09:10:08.647Z,96112.91
2022-11-14T09:12:59.005Z,96109.88
2022-11-14T09:15:44.954Z,96111.38
2022-11-14T09:18:31.373Z,96115.34
2022-11-14T09:21:17.019Z,96113.25
2022-11-14T09:24:02.334Z,96119.94
2022-11-14T09:26:54.992Z,96125.97
2022-11-14T09:29:41.711Z,96121.31
2022-11-14T09:32:27.182Z,96119.91
2022-11-14T09:35:12.952Z,96127.56
2022-11-14T09:38:09.356Z,96121.09
2022-11-14T09:41:06.578Z,96122.28
2022-11-14T09:44:22.801Z,96109.66
2022-11-14T09:47:20.538Z,96110.03
2022-11-14T09:50:28.963Z,96111.06
2022-11-14T09:53:29.243Z,96110.50
2022-11-14T09:56:21.700Z,96109.59
2022-11-14T09:59:14.828Z,96092.13
2022-11-14T10:02:21.773Z,96099.03
2022-11-14T10:05:25.782Z,96094.16
2022-11-14T10:08:29.308Z,96103.69
2022-11-14T10:11:28.540Z,96104.94
2022-11-14T10:14:23.099Z,96091.31
2022-11-14T10:17:40.888Z,96084.13
2022-11-14T10:20:29.149Z,96095.44
2022-11-14T10:23:35.153Z,96092.44
2022-11-14T10:26:27.220Z,96096.94
2022-11-14T10:29:42.556Z,96090.13
2022-11-14T10:32:31.132Z,96091.31
2022-11-14T10:35:21.939Z,96091.03
2022-11-14T10:38:07.545Z,96093.50
2022-11-14T10:41:00.926Z,96090.56
2022-11-14T10:43:51.944Z,96092.22
2022-11-14T10:46:45.743Z,96084.91
2022-11-14T10:49:36.255Z,96078.06
2022-11-14T10:52:26.597Z,96080.66
2022-11-14T10:55:17.677Z,96074.47
2022-11-14T10:58:13.732Z,96077.88
2022-11-14T11:01:37.847Z,96077.88
2022-11-14T11:04:34.542Z,96074.59
2022-11-14T11:08:10.296Z,96077.41
2022-11-14T11:11:29.905Z,96063.97
2022-11-14T11:14:19.694Z,96067.88
2022-11-14T11:17:26.829Z,96050.38
2022-11-14T11:20:41.082Z,96057.03
2022-11-14T11:23:27.815Z,96054.84
2022-11-14T11:26:39.517Z,96055.66
2022-11-14T11:29:25.055Z,96054.31
2022-11-14T11:32:10.696Z,96051.78
2022-11-14T11:34:59.522Z,96047.97
2022-11-14T11:38:02.960Z,96052.16
2022-11-14T11:40:54.890Z,96055.91
2022-11-14T11:43:53.945Z,96054.06
2022-11-14T11:46:45.079Z,96059.53
2022-11-14T11:49:41.604Z,96061.78
2022-11-14T11:52:30.198Z,96065.78
2022-11-14T11:55:20.758Z,96072.78
2022-11-14T11:58:20.956Z,96068.31
2022-11-14T12:01:09.718Z,96064.78
2022-11-14T12:03:55.595Z,96070.34
2022-11-14T12:07:10.259Z,96079.94
2022-11-14T12:10:12.860Z,96084.63
2022-11-14T12:13:32.210Z,96074.72
2022-11-14T12:16:48.006Z,96081.78
2022-11-14T12:19:40.715Z,96081.94
2022-11-14T12:22:47.828Z,96088.94
2022-11-14T12:25:57.310Z,96083.78
2022-11-14T12:29:19.857Z,96083.41
2022-11-14T12:32:15.710Z,96084.63
2022-11-14T12:35:05.528Z,96080.72
2022-11-14T12:37:56.069Z,96075.31
2022-11-14T12:40:51.470Z,96076.31
2022-11-14T12:43:40.280Z,96079.13
2022-11-14T12:46:26.852Z,96074.44
2022-11-14T12:49:47.809Z,96069.06
2022-11-14T12:52:46.344Z,96078.22
2022-11-14T12:55:31.573Z,96075.59
2022-11-14T12:58:35.759Z,96070.09
2022-11-14T13:01:37.880Z,96068.69
2022-11-14T13:04:42.521Z,96060.75
2022-11-14T13:07:42.926Z,96054.59
2022-11-14T13:10:39.993Z,96056.19
2022-11-14T13:13:43.690Z,96052.94
2022-11-14T13:16:54.016Z,96058.69
2022-11-14T13:20:04.900Z,96063.88
2022-11-14T13:22:50.486Z,96063.47
2022-11-14T13:25:36.154Z,96059.88
2022-11-14T13:28:45.318Z,96071.34
2022-11-14T13:31:33.684Z,96065.44
2022-11-14T13:34:34.215Z,96050.78
2022-11-14T13:37:55.408Z,96050.25
2022-11-14T13:41:04.769Z,96052.88
2022-11-14T13:43:57.070Z,96048.91
2022-11-14T13:46:54.859Z,96034.69
2022-11-14T13:50:02.101Z,96037.59
2022-11-14T13:52:50.653Z,96031.06
2022-11-14T13:55:59.623Z,96039.28
2022-11-14T13:59:09.854Z,96036.50
2022-11-14T14:02:05.130Z,96034.78
2022-11-14T14:05:40.001Z,96046.16
2022-11-14T14:08:50.033Z,96043.16
2022-11-14T14:11:53.378Z,96039.38
2022-11-14T14:15:00.485Z,96035.53
2022-11-14T14:18:10.407Z,96019.25
2022-11-14T14:21:03.436Z,96021.47
2022-11-14T14:23:53.609Z,96030.09
2022-11-14T14:27:18.612Z,96031.97
2022-11-14T14:30:08.632Z,96032.00
2022-11-14T14:33:09.093Z,96037.81
2022-11-14T14:35:54.862Z,96029.66
2022-11-14T14:38:40.202Z,96024.94
2022-11-14T14:41:31.159Z,96019.47
2022-11-14T14:44:23.376Z,96025.38
2022-11-14T14:47:37.331Z,96029.00
2022-11-14T14:50:27.052Z,96033.59
2022-11-14T14:53:31.343Z,96024.44
2022-11-14T14:56:22.046Z,96031.19
2022-11-14T14:59:19.434Z,96031.41
2022-11-14T15:02:15.423Z,96021.78
2022-11-14T15:05:01.965Z,96029.56
2022-11-14T15:07:49.554Z,96033.19
2022-11-14T15:10:35.320Z,96026.19
2022-11-14T15:13:21.096Z,96023.41
2022-11-14T15:16:07.858Z,96021.03
2022-11-14T15:18:55.418Z,96026.25
2022-11-14T15:21:41.010Z,96034.59
2022-11-14T15:24:26.867Z,96041.78
2022-11-14T15:27:20.365Z,96040.94
2022-11-14T15:30:07.907Z,96044.22
2022-11-14T15:32:56.241Z,96036.38
2022-11-14T15:35:41.742Z,96038.03
2022-11-14T15:41:33.813Z,96048.31
2022-11-14T15:44:33.367Z,96049.97
2022-11-14T15:47:36.848Z,96057.66
2022-11-14T15:50:30.184Z,96057.97
2022-11-14T15:53:25.639Z,96063.00
2022-11-14T15:56:13.004Z,96064.66
2022-11-14T15:58:58.415Z,96064.47
2022-11-14T16:01:46.090Z,96075.38
2022-11-14T16:04:35.220Z,96075.38
2022-11-14T16:07:22.063Z,96078.78
2022-11-14T16:10:19.645Z,96088.03
2022-11-14T16:13:05.358Z,96094.03
2022-11-14T16:15:50.924Z,96104.28
2022-11-14T16:18:36.529Z,96106.19
2022-11-14T16:21:22.107Z,96096.44
2022-11-14T16:24:15.027Z,96098.69
2022-11-14T16:27:00.579Z,96096.31
2022-11-14T16:29:45.823Z,96088.47
2022-11-14T16:32:31.198Z,96090.53
2022-11-14T16:35:22.697Z,96092.25
2022-11-14T16:38:12.305Z,96084.06
2022-11-14T16:41:00.209Z,96073.09
2022-11-14T16:43:46.104Z,96061.66
2022-11-14T16:46:31.966Z,96066.72
2022-11-14T16:49:19.651Z,96058.53
2022-11-14T16:52:08.603Z,96059.66
2022-11-14T16:54:54.116Z,96068.25
2022-11-14T16:57:40.220Z,96067.72
2022-11-14T17:00:25.911Z,96058.44
2022-11-14T17:03:11.313Z,96049.44
2022-11-14T17:05:56.814Z,96061.00
2022-11-14T17:08:42.277Z,96048.41
2022-11-14T17:11:28.067Z,96036.38
2022-11-14T17:14:13.756Z,96036.16
2022-11-14T17:17:02.684Z,96036.16
2022-11-14T17:19:48.193Z,96027.38
2022-11-14T17:22:33.523Z,96027.38
2022-11-14T17:25:19.190Z,96032.06
2022-11-14T17:28:04.986Z,96034.84
2022-11-14T17:30:50.120Z,96032.22
2022-11-14T17:33:36.110Z,96020.03
2022-11-14T17:36:22.687Z,96012.03
2022-11-14T17:39:08.079Z,96004.91
2022-11-14T17:41:53.488Z,95998.06
2022-11-14T17:44:38.741Z,96009.16
2022-11-14T17:47:24.003Z,96007.50
2022-11-14T17:50:09.970Z,96013.38
2022-11-14T17:52:55.437Z,96019.56
2022-11-14T17:55:40.810Z,96018.88
2022-11-14T17:58:31.187Z,96018.31
2022-11-14T18:01:22.257Z,96018.94
2022-11-14T18:04:08.089Z,96024.16
2022-11-14T18:06:53.536Z,96024.38
2022-11-14T18:09:39.302Z,96019.53
2022-11-14T18:12:24.365Z,96015.13
2022-11-14T18:15:10.160Z,96024.91
2022-11-14T18:17:56.020Z,96026.56
2022-11-14T18:20:41.521Z,96021.22
2022-11-14T18:23:27.040Z,96022.19
2022-11-14T18:26:14.829Z,96021.06
2022-11-14T18:29:04.226Z,96024.34
2022-11-14T18:31:49.434Z,96024.66
2022-11-14T18:34:37.115Z,96023.69
2022-11-14T18:37:23.314Z,96022.28
2022-11-14T18:40:16.227Z,96015.44
2022-11-14T18:43:02.494Z,96009.22
2022-11-14T18:45:48.222Z,96011.59
2022-11-14T18:48:33.639Z,96014.50
2022-11-14T18:51:22.114Z,96030.13
2022-11-14T18:54:11.483Z,96018.16
2022-11-14T18:56:57.633Z,96006.72
2022-11-14T18:59:42.994Z,96018.66
2022-11-14T19:02:28.359Z,96026.97
2022-11-14T19:05:13.795Z,96031.84
2022-11-14T19:07:59.279Z,96026.50
2022-11-14T19:10:44.450Z,96033.00
2022-11-14T19:13:30.234Z,96031.19
2022-11-14T19:16:15.744Z,96033.78
2022-11-14T19:19:01.902Z,96031.53
2022-11-14T19:21:51.024Z,96024.38
2022-11-14T19:24:36.805Z,96030.38
2022-11-14T19:27:22.371Z,96025.50
2022-11-14T19:30:08.509Z,96037.88
2022-11-14T19:32:54.025Z,96031.97
2022-11-14T19:35:39.503Z,96029.53
2022-11-14T19:38:25.027Z,96024.34
2022-11-14T19:41:25.143Z,96024.34
2022-11-14T19:44:10.606Z,96025.44
2022-11-14T19:46:55.924Z,96024.63
2022-11-14T19:49:42.950Z,96015.47
2022-11-14T19:52:28.397Z,96019.59
2022-11-14T19:55:13.627Z,96018.75
2022-11-14T19:58:00.223Z,96020.84
2022-11-14T20:00:45.548Z,96015.78
2022-11-14T20:03:31.589Z,96019.06
2022-11-14T20:06:28.898Z,96011.25
2022-11-14T20:09:16.946Z,96015.78
2022-11-14T20:12:02.723Z,96009.13
2022-11-14T20:14:48.138Z,96020.34
2022-11-14T20:17:36.023Z,96014.31
2022-11-14T20:20:24.370Z,96023.63
2022-11-14T20:23:09.992Z,96027.97
2022-11-14T20:25:55.792Z,96021.47
2022-11-14T20:28:42.521Z,96017.06
2022-11-14T20:31:30.100Z,96020.34
2022-11-14T20:34:15.669Z,96015.41
2022-11-14T20:37:16.430Z,96018.19
2022-11-14T20:40:01.619Z,96010.53
2022-11-14T20:42:49.043Z,96011.03
2022-11-14T20:45:34.564Z,96017.22
2022-11-14T20:48:19.671Z,96012.47
2022-11-14T20:51:11.834Z,96011.63
2022-11-14T20:53:56.882Z,96017.38
2022-11-14T20:56:42.307Z,96016.03
2022-11-14T20:59:27.746Z,96019.94
2022-11-14T21:02:14.402Z,96019.28
2022-11-14T21:05:01.018Z,96017.34
2022-11-14T21:07:46.421Z,96018.59
2022-11-14T21:10:46.067Z,96002.47
2022-11-14T21:13:49.695Z,96001.13
2022-11-14T21:16:37.356Z,95997.72
2022-11-14T21:19:22.873Z,95995.41
2022-11-14T21:22:08.484Z,95993.63
2022-11-14T21:24:53.772Z,95995.09
2022-11-14T21:27:39.157Z,95997.25
2022-11-14T21:30:24.579Z,95994.81
2022-11-14T21:33:09.906Z,95995.28
2022-11-14T21:35:55.401Z,95999.66
2022-11-14T21:38:41.439Z,96003.22
2022-11-14T21:41:28.688Z,96008.28
2022-11-14T21:44:16.789Z,96006.44
2022-11-14T21:47:02.454Z,95995.00
2022-11-14T21:49:47.719Z,95993.66
2022-11-14T21:52:33.168Z,95980.63
2022-11-14T21:55:18.531Z,95980.81
2022-11-14T21:58:03.775Z,95977.75
2022-11-14T22:00:49.267Z,95983.63
2022-11-14T22:03:53.565Z,95979.56
2022-11-14T22:06:42.653Z,95979.91
2022-11-14T22:09:28.613Z,95978.41
2022-11-14T22:12:14.000Z,95976.66
2022-11-14T22:14:59.394Z,95975.25
2022-11-14T22:17:44.791Z,95979.78
2022-11-14T22:20:30.166Z,95974.38
2022-11-14T22:23:15.524Z,95980.09
2022-11-14T22:26:01.088Z,95974.44
2022-11-14T22:28:47.119Z,95975.50
2022-11-14T22:31:32.764Z,95976.09
2022-11-14T22:34:18.108Z,95985.16
2022-11-14T22:37:03.681Z,95969.22
2022-11-14T22:39:48.999Z,95953.53
2022-11-14T22:42:34.366Z,95958.13
2022-11-14T22:45:20.211Z,95956.88
2022-11-14T22:48:05.507Z,95963.59
2022-11-14T22:51:07.502Z,95969.03
2022-11-14T22:53:57.529Z,95966.94
2022-11-14T22:56:42.720Z,95969.53
2022-11-14T22:59:28.162Z,95971.31
2022-11-14T23:02:13.436Z,95973.78
2022-11-14T23:04:58.853Z,95979.50
2022-11-14T23:07:44.156Z,95973.16
2022-11-14T23:10:40.716Z,95960.09
2022-11-14T23:13:29.097Z,95959.28
2022-11-14T23:16:18.625Z,95957.31
2022-11-14T23:19:04.887Z,95956.06
2022-11-14T23:21:50.538Z,95957.25
2022-11-14T23:24:36.543Z,95950.09
2022-11-14T23:27:22.178Z,95957.75
2022-11-14T23:30:09.236Z,95956.78
2022-11-14T23:32:54.813Z,95953.34
2022-11-14T23:35:41.585Z,95941.81
2022-11-14T23:38:27.190Z,95945.06
2022-11-14T23:41:31.406Z,95945.44
2022-11-14T23:44:17.693Z,95937.63
2022-11-14T23:47:03.600Z,95936.66
2022-11-14T23:49:49.650Z,95940.72
2022-11-14T23:52:35.310Z,95946.06
2022-11-14T23:55:21.475Z,95948.22
2022-11-14T23:58:07.318Z,95947.72
